createdAt,value
2022-08-02T00:00:57.925Z,16.58
2022-08-02T00:03:25.051Z,16.54
2022-08-02T00:05:53.539Z,16.40
2022-08-02T00:08:22.424Z,16.40
2022-08-02T00:10:50.016Z,16.43
2022-08-02T00:13:17.125Z,16.42
2022-08-02T00:15:44.212Z,16.43
2022-08-02T00:18:11.351Z,16.34
2022-08-02T00:20:38.551Z,16.36
2022-08-02T00:23:05.651Z,16.27
2022-08-02T00:25:32.717Z,16.29
2022-08-02T00:27:59.657Z,16.25
2022-08-02T00:30:26.702Z,16.20
2022-08-02T00:32:53.729Z,16.26
2022-08-02T00:35:22.366Z,16.07
2022-08-02T00:37:50.121Z,16.13
2022-08-02T00:50:06.892Z,16.12
2022-08-02T00:55:37.674Z,16.07
2022-08-02T00:58:04.916Z,15.84
2022-08-02T01:00:32.111Z,16.02
2022-08-02T01:02:59.515Z,16.02
2022-08-02T01:05:26.634Z,15.99
2022-08-02T01:07:53.624Z,15.97
2022-08-02T01:10:21.089Z,15.95
2022-08-02T01:12:48.126Z,15.92
2022-08-02T01:15:16.156Z,15.64
2022-08-02T01:18:02.882Z,15.78
2022-08-02T01:21:11.972Z,15.82
2022-08-02T01:31:06.014Z,15.65
2022-08-02T01:37:30.059Z,15.44
2022-08-02T01:40:03.103Z,15.54
2022-08-02T01:42:31.571Z,15.46
2022-08-02T01:45:00.422Z,15.45
2022-08-02T01:47:33.636Z,15.46
2022-08-02T01:50:02.601Z,15.31
2022-08-02T01:52:34.058Z,15.46
2022-08-02T01:55:09.894Z,15.46
2022-08-02T01:57:49.065Z,15.49
2022-08-02T02:00:18.194Z,15.40
2022-08-02T02:02:47.938Z,15.57
2022-08-02T02:05:18.483Z,15.45
2022-08-02T02:07:49.661Z,15.46
2022-08-02T02:10:21.004Z,15.47
2022-08-02T02:12:51.279Z,15.59
2022-08-02T02:15:20.234Z,15.59
2022-08-02T02:18:12.270Z,15.60
2022-08-02T02:20:37.193Z,15.40
2022-08-02T02:23:04.585Z,15.49
2022-08-02T02:25:36.325Z,15.44
2022-08-02T02:28:09.895Z,15.40
2022-08-02T02:30:40.273Z,15.48
2022-08-02T02:33:09.801Z,15.68
2022-08-02T02:35:38.527Z,15.55
2022-08-02T02:38:09.677Z,15.68
2022-08-02T02:40:38.750Z,15.58
2022-08-02T02:43:07.527Z,15.52
2022-08-02T02:45:36.925Z,15.66
2022-08-02T02:48:05.926Z,15.71
2022-08-02T02:50:34.188Z,15.78
2022-08-02T02:53:02.448Z,15.79
2022-08-02T02:55:30.077Z,15.77
2022-08-02T02:57:58.984Z,15.87
2022-08-02T03:00:45.280Z,15.85
2022-08-02T03:03:13.768Z,16.17
2022-08-02T03:05:40.858Z,16.20
2022-08-02T03:08:08.845Z,16.32
2022-08-02T03:10:36.111Z,16.22
2022-08-02T03:13:03.478Z,16.55
2022-08-02T03:15:31.373Z,16.57
2022-08-02T03:17:58.479Z,16.64
2022-08-02T03:20:25.662Z,16.68
2022-08-02T03:22:52.884Z,16.73
2022-08-02T03:25:20.127Z,16.69
2022-08-02T03:27:47.612Z,16.84
2022-08-02T03:30:15.154Z,17.09
2022-08-02T03:32:46.041Z,17.13
2022-08-02T03:35:21.267Z,17.21
2022-08-02T03:37:52.320Z,17.33
2022-08-02T03:40:19.652Z,17.51
2022-08-02T03:42:48.092Z,17.47
2022-08-02T03:45:15.636Z,17.73
2022-08-02T03:47:44.193Z,17.79
2022-08-02T03:50:13.551Z,18.00
2022-08-02T03:52:42.712Z,18.10
2022-08-02T03:55:10.529Z,18.13
2022-08-02T03:57:42.949Z,18.42
2022-08-02T04:00:13.312Z,18.50
2022-08-02T04:02:41.181Z,18.47
2022-08-02T04:05:08.954Z,18.53
2022-08-02T04:08:34.456Z,18.42
2022-08-02T04:10:23.371Z,18.51
2022-08-02T04:12:50.711Z,18.57
2022-08-02T04:15:17.963Z,18.50
2022-08-02T04:17:50.972Z,18.63
2022-08-02T04:20:24.878Z,18.61
2022-08-02T04:23:07.629Z,18.67
2022-08-02T04:25:40.579Z,18.43
2022-08-02T04:28:16.566Z,18.36
2022-08-02T04:30:45.809Z,18.67
2022-08-02T04:33:13.308Z,19.00
2022-08-02T04:35:40.441Z,19.22
2022-08-02T04:38:10.173Z,19.40
2022-08-02T04:40:37.695Z,19.46
2022-08-02T04:43:04.981Z,19.59
2022-08-02T04:45:32.685Z,19.76
2022-08-02T04:48:04.967Z,20.10
2022-08-02T04:50:32.588Z,20.17
2022-08-02T04:52:59.691Z,20.49
2022-08-02T04:55:29.111Z,20.50
2022-08-02T04:58:03.746Z,20.84
2022-08-02T05:00:33.999Z,20.91
2022-08-02T05:03:01.710Z,20.81
2022-08-02T05:05:28.863Z,20.99
2022-08-02T05:07:56.190Z,21.00
2022-08-02T05:10:23.587Z,20.92
2022-08-02T05:12:50.935Z,21.15
2022-08-02T05:15:18.835Z,21.15
2022-08-02T05:17:48.652Z,21.27
2022-08-02T05:20:16.657Z,21.22
2022-08-02T05:22:44.128Z,21.00
2022-08-02T05:25:11.922Z,21.16
2022-08-02T05:27:39.036Z,21.29
2022-08-02T05:30:07.342Z,21.32
2022-08-02T05:32:34.764Z,21.34
2022-08-02T05:35:02.645Z,21.42
2022-08-02T05:37:33.043Z,21.62
2022-08-02T05:40:02.251Z,21.63
2022-08-02T05:42:33.987Z,21.73
2022-08-02T05:45:01.196Z,22.08
2022-08-02T05:47:31.034Z,22.27
2022-08-02T05:49:58.609Z,22.47
2022-08-02T05:52:31.075Z,22.64
2022-08-02T05:55:13.333Z,22.81
2022-08-02T05:57:53.171Z,22.97
2022-08-02T06:00:21.371Z,23.10
2022-08-02T06:03:05.589Z,23.53
2022-08-02T06:05:35.547Z,23.89
2022-08-02T06:08:03.060Z,24.15
2022-08-02T06:10:37.938Z,24.54
2022-08-02T06:13:14.643Z,24.86
2022-08-02T06:15:53.034Z,25.66
2022-08-02T06:18:27.603Z,26.13
2022-08-02T06:22:31.127Z,26.70
2022-08-02T06:23:57.482Z,27.24
2022-08-02T06:26:27.658Z,27.81
2022-08-02T06:28:57.164Z,28.32
2022-08-02T06:31:24.466Z,28.53
2022-08-02T06:33:52.332Z,28.69
2022-08-02T06:36:50.930Z,28.90
2022-08-02T06:39:28.736Z,29.38
2022-08-02T06:41:59.405Z,29.80
2022-08-02T06:44:47.803Z,29.73
2022-08-02T06:47:18.463Z,29.78
2022-08-02T06:49:51.515Z,29.47
2022-08-02T06:52:27.896Z,29.51
2022-08-02T06:55:00.704Z,29.62
2022-08-02T06:57:28.806Z,30.02
2022-08-02T06:59:56.219Z,30.25
2022-08-02T07:02:23.526Z,30.54
2022-08-02T07:04:51.053Z,30.07
2022-08-02T07:07:18.157Z,30.63
2022-08-02T07:09:56.734Z,30.43
2022-08-02T07:12:33.686Z,30.51
2022-08-02T07:15:01.177Z,30.70
2022-08-02T07:17:31.613Z,30.78
2022-08-02T07:19:59.544Z,31.09
2022-08-02T07:22:28.313Z,31.07
2022-08-02T07:24:59.930Z,31.20
2022-08-02T07:27:28.447Z,31.39
2022-08-02T07:29:56.773Z,31.48
2022-08-02T07:32:27.887Z,31.76
2022-08-02T07:34:55.849Z,32.06
2022-08-02T07:37:52.810Z,32.10
2022-08-02T07:40:19.519Z,32.47
2022-08-02T07:42:56.439Z,32.63
2022-08-02T07:45:27.495Z,32.12
2022-08-02T07:47:54.827Z,31.17
2022-08-02T07:50:21.994Z,30.91
2022-08-02T07:52:49.699Z,30.61
2022-08-02T07:55:24.504Z,30.80
2022-08-02T07:58:02.552Z,31.14
2022-08-02T08:00:29.736Z,31.42
2022-08-02T08:02:58.898Z,31.57
2022-08-02T08:05:26.118Z,31.14
2022-08-02T08:07:53.145Z,29.82
2022-08-02T08:10:20.306Z,29.55
2022-08-02T08:12:47.318Z,30.47
2022-08-02T08:15:14.432Z,31.07
2022-08-02T08:17:41.726Z,31.09
2022-08-02T08:20:12.808Z,31.29
2022-08-02T08:22:42.714Z,31.66
2022-08-02T08:25:10.025Z,31.64
2022-08-02T08:27:38.125Z,31.19
2022-08-02T08:30:05.855Z,30.28
2022-08-02T08:32:33.360Z,29.12
2022-08-02T08:35:04.159Z,28.86
2022-08-02T08:37:35.356Z,28.95
2022-08-02T08:40:05.429Z,29.19
2022-08-02T08:42:33.499Z,29.47
2022-08-02T08:45:01.308Z,30.09
2022-08-02T08:47:37.702Z,30.89
2022-08-02T08:50:16.275Z,30.83
2022-08-02T08:52:54.875Z,30.90
2022-08-02T08:55:27.869Z,31.32
2022-08-02T08:57:56.617Z,31.47
2022-08-02T09:00:23.972Z,31.43
2022-08-02T09:02:51.272Z,31.23
2022-08-02T09:05:18.385Z,31.20
2022-08-02T09:07:50.211Z,31.63
2022-08-02T09:10:43.450Z,32.06
2022-08-02T09:13:37.856Z,32.36
2022-08-02T09:16:12.196Z,32.73
2022-08-02T09:18:46.938Z,32.56
2022-08-02T09:21:18.774Z,32.13
2022-08-02T09:23:48.133Z,32.07
2022-08-02T09:26:20.956Z,31.73
2022-08-02T09:28:50.705Z,31.66
2022-08-02T09:31:23.308Z,32.06
2022-08-02T09:33:58.206Z,32.64
2022-08-02T09:36:26.436Z,32.91
2022-08-02T09:39:03.961Z,33.13
2022-08-02T09:41:33.571Z,33.00
2022-08-02T09:44:05.149Z,32.48
2022-08-02T09:46:41.089Z,31.97
2022-08-02T09:49:18.612Z,32.32
2022-08-02T09:51:46.867Z,32.78
2022-08-02T09:54:24.456Z,32.89
2022-08-02T09:56:57.451Z,33.29
2022-08-02T09:59:25.900Z,33.34
2022-08-02T10:02:01.245Z,33.63
2022-08-02T10:04:53.503Z,33.64
2022-08-02T10:07:23.015Z,33.56
2022-08-02T10:09:51.596Z,33.62
2022-08-02T10:12:20.772Z,33.53
2022-08-02T10:14:51.410Z,33.78
2022-08-02T10:17:20.150Z,33.90
2022-08-02T10:20:01.948Z,34.19
2022-08-02T10:22:34.816Z,34.70
2022-08-02T10:25:04.630Z,35.27
2022-08-02T10:27:49.324Z,35.74
2022-08-02T10:30:20.848Z,35.71
2022-08-02T10:32:49.235Z,35.21
2022-08-02T10:35:25.812Z,35.24
2022-08-02T10:37:56.687Z,34.89
2022-08-02T10:40:23.862Z,35.14
2022-08-02T10:42:53.027Z,35.19
2022-08-02T10:45:23.283Z,34.89
2022-08-02T10:48:14.800Z,34.47
2022-08-02T10:50:52.985Z,33.84
2022-08-02T10:53:25.323Z,32.87
2022-08-02T10:55:53.561Z,32.99
2022-08-02T10:58:29.344Z,33.69
2022-08-02T11:00:58.245Z,34.56
2022-08-02T11:03:28.453Z,35.34
2022-08-02T11:06:09.730Z,35.84
2022-08-02T11:09:32.744Z,34.83
2022-08-02T11:12:01.595Z,35.45
2022-08-02T11:14:29.411Z,36.04
2022-08-02T11:16:56.510Z,36.22
2022-08-02T11:19:24.939Z,36.41
2022-08-02T11:22:25.219Z,35.92
2022-08-02T11:24:52.714Z,35.84
2022-08-02T11:27:22.058Z,36.03
2022-08-02T11:29:50.066Z,36.24
2022-08-02T11:32:20.629Z,36.56
2022-08-02T11:34:51.670Z,36.56
2022-08-02T11:37:32.433Z,36.94
2022-08-02T11:39:59.629Z,37.81
2022-08-02T11:42:33.896Z,37.89
2022-08-02T11:45:01.694Z,36.56
2022-08-02T11:47:31.846Z,35.85
2022-08-02T11:50:09.325Z,34.70
2022-08-02T11:52:37.832Z,33.69
2022-08-02T11:55:07.024Z,33.44
2022-08-02T11:58:02.802Z,33.26
2022-08-02T12:00:22.871Z,33.72
2022-08-02T12:02:54.312Z,34.27
2022-08-02T12:05:51.294Z,34.86
2022-08-02T12:08:14.173Z,34.87
2022-08-02T12:10:50.474Z,35.24
2022-08-02T12:13:17.555Z,35.83
2022-08-02T12:15:46.737Z,35.64
2022-08-02T12:18:40.851Z,35.91
2022-08-02T12:21:28.192Z,35.66
2022-08-02T12:24:00.378Z,35.62
2022-08-02T12:26:30.179Z,36.24
2022-08-02T12:28:59.504Z,36.91
2022-08-02T12:31:56.475Z,37.93
2022-08-02T12:34:31.803Z,38.11
2022-08-02T12:37:10.277Z,38.63
2022-08-02T12:39:39.220Z,38.57
2022-08-02T12:42:08.890Z,37.98
2022-08-02T12:44:58.239Z,37.42
2022-08-02T12:47:31.386Z,36.58
2022-08-02T12:50:13.045Z,36.15
2022-08-02T12:52:40.145Z,36.67
2022-08-02T12:55:59.366Z,37.47
2022-08-02T12:58:15.973Z,37.57
2022-08-02T13:00:53.643Z,36.30
2022-08-02T13:04:09.504Z,35.62
2022-08-02T13:06:39.364Z,34.51
2022-08-02T13:08:58.721Z,34.15
2022-08-02T13:11:26.471Z,35.41
2022-08-02T13:13:53.627Z,36.88
2022-08-02T13:16:30.754Z,37.93
2022-08-02T13:18:59.532Z,38.50
2022-08-02T13:21:40.837Z,39.67
2022-08-02T13:24:37.651Z,40.14
2022-08-02T13:26:58.547Z,40.36
2022-08-02T13:29:26.135Z,40.85
2022-08-02T13:31:53.242Z,41.10
2022-08-02T13:34:21.271Z,40.39
2022-08-02T13:36:52.825Z,39.96
2022-08-02T13:39:19.862Z,39.51
2022-08-02T13:41:46.880Z,38.96
2022-08-02T13:44:13.909Z,39.27
2022-08-02T13:46:45.649Z,38.84
2022-08-02T13:49:18.974Z,37.98
2022-08-02T13:51:48.389Z,36.62
2022-08-02T13:54:16.537Z,35.88
2022-08-02T13:56:43.910Z,35.76
2022-08-02T13:59:54.558Z,35.76
2022-08-02T14:01:59.028Z,35.07
2022-08-02T14:04:27.013Z,34.94
2022-08-02T14:06:54.658Z,35.24
2022-08-02T14:09:25.911Z,35.89
2022-08-02T14:11:52.961Z,36.37
2022-08-02T14:14:20.262Z,36.89
2022-08-02T14:16:47.477Z,36.40
2022-08-02T14:19:17.503Z,36.94
2022-08-02T14:21:47.205Z,37.00
2022-08-02T14:24:32.975Z,36.70
2022-08-02T14:27:02.250Z,36.58
2022-08-02T14:29:29.159Z,36.48
2022-08-02T14:31:56.184Z,36.22
2022-08-02T14:34:23.209Z,36.35
2022-08-02T14:36:53.881Z,36.37
2022-08-02T14:39:21.606Z,35.83
2022-08-02T14:42:00.143Z,33.90
2022-08-02T14:44:28.857Z,32.86
2022-08-02T14:46:56.458Z,31.99
2022-08-02T14:49:25.940Z,31.06
2022-08-02T14:51:57.586Z,30.40
2022-08-02T14:54:32.935Z,29.74
2022-08-02T14:57:01.489Z,29.23
2022-08-02T14:59:29.380Z,28.87
2022-08-02T15:01:56.528Z,28.81
2022-08-02T15:04:24.656Z,28.64
2022-08-02T15:06:52.456Z,28.41
2022-08-02T15:09:20.347Z,28.26
2022-08-02T15:11:49.166Z,27.91
2022-08-02T15:14:19.152Z,27.87
2022-08-02T15:16:59.360Z,27.61
2022-08-02T15:19:56.130Z,27.68
2022-08-02T15:22:16.858Z,27.37
2022-08-02T15:24:47.008Z,27.37
2022-08-02T15:27:15.087Z,27.18
2022-08-02T15:29:44.210Z,27.19
2022-08-02T15:32:19.336Z,27.07
2022-08-02T15:34:47.880Z,26.93
2022-08-02T15:37:18.791Z,26.83
2022-08-02T15:39:46.712Z,26.82
2022-08-02T15:42:14.166Z,26.78
2022-08-02T15:44:41.621Z,26.69
2022-08-02T15:47:08.766Z,26.57
2022-08-02T15:49:40.683Z,26.56
2022-08-02T15:52:08.510Z,26.56
2022-08-02T15:54:35.556Z,26.57
2022-08-02T15:57:02.710Z,26.44
2022-08-02T15:59:29.848Z,26.50
2022-08-02T16:01:57.028Z,26.46
2022-08-02T16:04:24.160Z,26.44
2022-08-02T16:06:51.278Z,26.39
2022-08-02T16:09:18.391Z,26.38
2022-08-02T16:11:45.457Z,26.26
2022-08-02T16:14:12.593Z,26.28
2022-08-02T16:16:40.475Z,26.29
2022-08-02T16:19:47.461Z,26.15
2022-08-02T16:21:55.109Z,26.22
2022-08-02T16:24:22.348Z,26.14
2022-08-02T16:26:49.717Z,26.06
2022-08-02T16:29:18.905Z,25.84
2022-08-02T16:31:47.244Z,26.01
2022-08-02T16:34:15.186Z,25.98
2022-08-02T16:36:42.361Z,25.93
2022-08-02T16:39:09.910Z,25.77
2022-08-02T16:41:50.760Z,25.68
2022-08-02T16:44:29.799Z,25.61
2022-08-02T16:47:01.487Z,25.61
2022-08-02T16:50:04.632Z,25.50
2022-08-02T16:52:19.493Z,25.40
2022-08-02T16:54:49.698Z,25.40
2022-08-02T16:57:43.176Z,25.20
2022-08-02T17:00:15.628Z,25.09
2022-08-02T17:02:43.441Z,25.24
2022-08-02T17:05:14.345Z,25.09
2022-08-02T17:08:16.449Z,25.10
2022-08-02T17:10:30.317Z,25.07
2022-08-02T17:13:11.328Z,24.97
2022-08-02T17:16:08.454Z,25.00
2022-08-02T17:18:29.012Z,24.95
2022-08-02T17:20:56.507Z,24.90
2022-08-02T17:23:47.197Z,24.87
2022-08-02T17:26:13.121Z,24.83
2022-08-02T17:29:14.671Z,24.80
2022-08-02T17:34:31.693Z,24.70
2022-08-02T17:36:58.775Z,24.66
2022-08-02T17:39:34.026Z,24.57
2022-08-02T17:42:09.255Z,24.61
2022-08-02T17:44:38.493Z,24.58
2022-08-02T17:47:11.762Z,24.51
2022-08-02T17:49:43.998Z,24.48
2022-08-02T17:52:49.445Z,24.31
2022-08-02T17:54:59.048Z,24.31
2022-08-02T17:57:58.185Z,24.23
2022-08-02T18:00:13.786Z,24.25
2022-08-02T18:02:41.914Z,24.20
2022-08-02T18:05:13.245Z,24.17
2022-08-02T18:07:53.099Z,24.11
2022-08-02T18:10:24.254Z,24.06
2022-08-02T18:12:53.575Z,23.99
2022-08-02T18:15:23.243Z,23.92
2022-08-02T18:17:51.364Z,23.84
2022-08-02T18:20:21.950Z,23.79
2022-08-02T18:22:53.685Z,23.75
2022-08-02T18:25:37.086Z,23.69
2022-08-02T18:28:11.840Z,23.59
2022-08-02T18:30:38.991Z,23.48
2022-08-02T18:33:59.970Z,23.47
2022-08-02T18:35:55.232Z,23.48
2022-08-02T18:38:26.749Z,23.40
2022-08-02T18:40:54.089Z,23.29
2022-08-02T18:43:25.398Z,23.17
2022-08-02T18:46:06.423Z,23.09
2022-08-02T18:48:44.290Z,23.00
2022-08-02T18:51:16.240Z,23.04
2022-08-02T18:53:51.030Z,23.05
2022-08-02T18:56:19.987Z,23.01
2022-08-02T18:58:55.974Z,23.02
2022-08-02T19:01:32.158Z,23.04
2022-08-02T19:04:04.454Z,23.06
2022-08-02T19:06:31.963Z,23.12
2022-08-02T19:11:50.109Z,23.35
2022-08-02T19:14:27.198Z,23.35
2022-08-02T19:16:54.549Z,23.43
2022-08-02T19:19:22.323Z,23.37
2022-08-02T19:22:16.134Z,23.45
2022-08-02T19:24:37.776Z,23.29
2022-08-02T19:27:14.095Z,23.34
2022-08-02T19:29:48.668Z,23.27
2022-08-02T19:32:40.152Z,23.14
2022-08-02T19:35:19.542Z,23.07
2022-08-02T19:37:52.523Z,22.82
2022-08-02T19:40:24.265Z,22.92
2022-08-02T19:44:23.979Z,22.85
2022-08-02T19:45:49.802Z,22.79
2022-08-02T19:48:23.873Z,22.74
2022-08-02T19:50:56.070Z,22.46
2022-08-02T19:53:29.003Z,22.60
2022-08-02T19:56:00.336Z,22.50
2022-08-02T19:58:32.384Z,22.47
2022-08-02T20:00:59.691Z,22.44
2022-08-02T20:03:51.520Z,22.45
2022-08-02T20:06:13.991Z,22.47
2022-08-02T20:08:52.778Z,22.46
2022-08-02T20:11:22.130Z,22.42
2022-08-02T20:13:52.788Z,22.37
2022-08-02T20:16:28.132Z,22.33
2022-08-02T20:18:56.492Z,22.24
2022-08-02T20:21:34.080Z,22.22
2022-08-02T20:24:02.069Z,22.25
2022-08-02T20:26:31.642Z,22.35
2022-08-02T20:29:02.701Z,22.26
2022-08-02T20:31:30.529Z,22.22
2022-08-02T20:33:58.036Z,22.11
2022-08-02T20:36:26.753Z,22.16
2022-08-02T20:38:54.738Z,22.19
2022-08-02T20:41:36.911Z,22.19
2022-08-02T20:44:15.364Z,22.06
2022-08-02T20:46:44.511Z,22.13
2022-08-02T20:49:25.079Z,22.11
2022-08-02T20:52:05.003Z,21.99
2022-08-02T20:54:52.764Z,21.97
2022-08-02T20:57:48.768Z,21.99
2022-08-02T21:00:08.939Z,21.89
2022-08-02T21:02:36.105Z,21.91
2022-08-02T21:05:07.861Z,21.85
2022-08-02T21:07:42.527Z,21.80
2022-08-02T21:10:15.170Z,21.73
2022-08-02T21:12:42.624Z,21.73
2022-08-02T21:15:12.667Z,21.69
2022-08-02T21:17:45.328Z,21.64
2022-08-02T21:20:27.436Z,21.64
2022-08-02T21:22:56.907Z,21.59
2022-08-02T21:28:17.405Z,21.44
2022-08-02T21:30:45.271Z,21.37
2022-08-02T21:33:23.292Z,21.38
2022-08-02T21:38:35.143Z,21.15
2022-08-02T21:41:11.158Z,21.13
2022-08-02T21:43:40.494Z,21.11
2022-08-02T21:46:11.023Z,21.06
2022-08-02T21:48:42.299Z,21.01
2022-08-02T21:51:09.586Z,21.00
2022-08-02T21:53:43.621Z,20.93
2022-08-02T21:56:30.665Z,20.88
2022-08-02T21:58:59.235Z,20.80
2022-08-02T22:01:27.524Z,20.77
2022-08-02T22:03:58.603Z,20.71
2022-08-02T22:06:26.000Z,20.48
2022-08-02T22:08:54.402Z,20.74
2022-08-02T22:11:22.166Z,20.69
2022-08-02T22:13:49.268Z,20.66
2022-08-02T22:16:18.480Z,20.77
2022-08-02T22:18:50.348Z,20.70
2022-08-02T22:21:20.704Z,20.55
2022-08-02T22:23:51.300Z,20.65
2022-08-02T22:26:19.299Z,20.52
2022-08-02T22:28:51.789Z,20.51
2022-08-02T22:31:40.591Z,20.33
2022-08-02T22:34:11.801Z,20.17
2022-08-02T22:36:55.687Z,20.32
2022-08-02T22:39:22.800Z,20.30
2022-08-02T22:42:06.404Z,20.18
2022-08-02T22:44:37.004Z,20.16
2022-08-02T22:47:07.406Z,20.12
2022-08-02T22:49:51.755Z,20.05
2022-08-02T22:52:40.093Z,19.90
2022-08-02T22:55:07.486Z,19.89
2022-08-02T22:57:34.534Z,19.99
2022-08-02T22:58:47.003Z,23.16
2022-08-02T22:58:50.474Z,24.74
2022-08-02T23:00:21.490Z,19.94
2022-08-02T23:02:48.559Z,19.91
2022-08-02T23:05:15.799Z,19.76
2022-08-02T23:07:42.930Z,19.83
2022-08-02T23:10:10.030Z,19.81
2022-08-02T23:12:37.358Z,19.82
2022-08-02T23:15:04.903Z,19.75
2022-08-02T23:17:52.924Z,19.73
2022-08-02T23:20:20.286Z,19.69
2022-08-02T23:22:47.366Z,19.65
2022-08-02T23:25:14.827Z,19.67
2022-08-02T23:27:50.814Z,19.73
2022-08-02T23:30:19.172Z,19.72
2022-08-02T23:32:47.706Z,19.72
2022-08-02T23:35:17.108Z,19.70
2022-08-02T23:37:59.594Z,19.70
2022-08-02T23:40:38.834Z,19.72
2022-08-02T23:43:14.010Z,19.59
2022-08-02T23:45:46.443Z,19.59
2022-08-02T23:48:14.077Z,19.48
2022-08-02T23:50:41.183Z,19.41
2022-08-02T23:53:08.218Z,19.43
2022-08-02T23:55:35.258Z,19.37
2022-08-02T23:58:02.252Z,19.45
